createdAt,value
2023-09-10T00:00:07.105Z,99.90
2023-09-10T00:02:36.310Z,99.90
2023-09-10T00:05:06.152Z,99.90
2023-09-10T00:07:36.131Z,99.90
2023-09-10T00:10:04.801Z,99.90
2023-09-10T00:12:33.146Z,99.90
2023-09-10T00:15:01.647Z,99.90
2023-09-10T00:17:30.106Z,99.90
2023-09-10T00:19:58.939Z,99.90
2023-09-10T00:22:27.072Z,99.90
2023-09-10T00:24:56.512Z,99.90
2023-09-10T00:27:24.741Z,99.90
2023-09-10T00:29:53.003Z,99.90
2023-09-10T00:32:21.163Z,99.90
2023-09-10T00:34:49.349Z,99.90
2023-09-10T00:37:18.508Z,99.90
2023-09-10T00:39:47.134Z,99.90
2023-09-10T00:42:16.503Z,99.90
2023-09-10T00:44:44.584Z,99.90
2023-09-10T00:47:12.945Z,99.90
2023-09-10T00:49:42.027Z,99.90
2023-09-10T00:52:10.348Z,99.90
2023-09-10T00:54:39.658Z,99.90
2023-09-10T00:57:08.176Z,99.90
2023-09-10T00:59:37.986Z,99.90
2023-09-10T01:02:07.074Z,99.90
2023-09-10T01:04:35.330Z,99.90
2023-09-10T01:07:04.120Z,99.90
2023-09-10T01:09:32.270Z,99.90
2023-09-10T01:12:07.300Z,99.90
2023-09-10T01:14:41.364Z,99.90
2023-09-10T01:17:15.391Z,99.90
2023-09-10T01:19:58.733Z,99.90
2023-09-10T01:22:34.311Z,99.90
2023-09-10T01:25:05.114Z,99.90
2023-09-10T01:27:33.256Z,99.90
2023-09-10T01:30:01.601Z,99.90
2023-09-10T01:32:33.363Z,99.90
2023-09-10T01:35:08.368Z,99.90
2023-09-10T01:37:42.875Z,99.90
2023-09-10T01:40:18.546Z,99.90
2023-09-10T01:42:49.619Z,99.90
2023-09-10T01:45:18.749Z,99.90
2023-09-10T01:47:47.145Z,99.90
2023-09-10T01:50:16.284Z,99.90
2023-09-10T01:52:44.443Z,99.90
2023-09-10T01:55:13.836Z,99.90
2023-09-10T01:57:41.911Z,99.90
2023-09-10T02:00:11.244Z,99.90
2023-09-10T02:02:42.654Z,99.90
2023-09-10T02:05:10.797Z,99.90
2023-09-10T02:07:38.946Z,99.90
2023-09-10T02:10:08.497Z,99.90
2023-09-10T02:12:37.952Z,99.90
2023-09-10T02:15:08.933Z,99.90
2023-09-10T02:17:37.067Z,99.90
2023-09-10T02:20:10.873Z,99.90
2023-09-10T02:22:40.064Z,99.90
2023-09-10T02:25:09.500Z,99.90
2023-09-10T02:27:39.021Z,99.90
2023-09-10T02:30:08.689Z,99.90
2023-09-10T02:32:37.675Z,99.90
2023-09-10T02:35:06.386Z,99.90
2023-09-10T02:37:34.593Z,99.90
2023-09-10T02:40:02.663Z,99.90
2023-09-10T02:42:30.851Z,99.90
2023-09-10T02:45:00.501Z,99.90
2023-09-10T02:47:28.930Z,99.90
2023-09-10T02:49:57.236Z,99.90
2023-09-10T02:52:25.937Z,99.90
2023-09-10T02:54:54.103Z,99.90
2023-09-10T02:57:22.192Z,99.90
2023-09-10T02:59:50.388Z,99.90
2023-09-10T03:02:19.976Z,99.90
2023-09-10T03:04:47.153Z,99.90
2023-09-10T03:07:15.352Z,99.90
2023-09-10T03:09:43.443Z,99.90
2023-09-10T03:12:22.667Z,99.90
2023-09-10T03:14:51.098Z,99.90
2023-09-10T03:17:21.948Z,99.90
2023-09-10T03:19:50.822Z,99.90
2023-09-10T03:22:20.469Z,99.90
2023-09-10T03:24:48.809Z,99.90
2023-09-10T03:27:17.019Z,99.90
2023-09-10T03:29:46.498Z,99.90
2023-09-10T03:32:16.381Z,99.90
2023-09-10T03:34:47.845Z,99.90
2023-09-10T03:37:15.966Z,99.90
2023-09-10T03:39:44.350Z,99.90
2023-09-10T03:42:12.920Z,99.90
2023-09-10T03:44:40.986Z,99.90
2023-09-10T03:47:09.153Z,99.90
2023-09-10T03:49:38.115Z,99.90
2023-09-10T03:52:17.797Z,99.90
2023-09-10T03:54:45.880Z,99.90
2023-09-10T03:57:14.243Z,99.90
2023-09-10T03:59:43.154Z,99.90
2023-09-10T04:02:12.235Z,99.90
2023-09-10T04:04:42.677Z,99.90
2023-09-10T04:07:11.037Z,99.90
2023-09-10T04:09:42.720Z,99.90
2023-09-10T04:12:10.904Z,99.90
2023-09-10T04:14:38.980Z,99.90
2023-09-10T04:17:07.279Z,99.90
2023-09-10T04:19:35.509Z,99.90
2023-09-10T04:22:03.983Z,99.90
2023-09-10T04:24:32.087Z,99.90
2023-09-10T04:27:01.710Z,99.90
2023-09-10T04:29:30.378Z,99.90
2023-09-10T04:31:59.027Z,99.90
2023-09-10T04:34:27.126Z,99.90
2023-09-10T04:36:55.226Z,99.90
2023-09-10T04:39:23.341Z,99.90
2023-09-10T04:41:51.919Z,99.90
2023-09-10T04:44:22.233Z,99.90
2023-09-10T04:46:50.443Z,99.90
2023-09-10T04:49:19.140Z,99.90
2023-09-10T04:51:47.241Z,99.90
2023-09-10T04:54:15.285Z,99.90
2023-09-10T04:56:43.452Z,99.90
2023-09-10T04:59:11.610Z,99.90
2023-09-10T05:01:41.310Z,99.90
2023-09-10T05:04:09.888Z,99.90
2023-09-10T05:06:38.675Z,99.90
2023-09-10T05:09:09.135Z,99.90
2023-09-10T05:11:37.188Z,99.90
2023-09-10T05:14:05.465Z,99.90
2023-09-10T05:16:33.640Z,99.90
2023-09-10T05:19:03.181Z,99.90
2023-09-10T05:21:31.244Z,99.90
2023-09-10T05:23:59.334Z,99.90
2023-09-10T05:26:27.511Z,99.90
2023-09-10T05:28:55.665Z,99.90
2023-09-10T05:31:24.018Z,99.90
2023-09-10T05:33:52.309Z,99.90
2023-09-10T05:36:23.719Z,99.90
2023-09-10T05:38:53.712Z,99.90
2023-09-10T05:41:21.911Z,99.90
2023-09-10T05:43:50.334Z,99.90
2023-09-10T05:46:19.040Z,99.90
2023-09-10T05:48:47.584Z,99.90
2023-09-10T05:51:15.776Z,99.90
2023-09-10T05:53:45.988Z,99.90
2023-09-10T05:56:14.791Z,99.90
2023-09-10T05:58:44.586Z,99.90
2023-09-10T06:01:13.208Z,99.90
2023-09-10T06:03:41.499Z,99.90
2023-09-10T06:06:09.887Z,99.90
2023-09-10T06:08:38.346Z,99.90
2023-09-10T06:11:08.452Z,99.90
2023-09-10T06:13:37.439Z,99.90
2023-09-10T06:16:05.876Z,99.90
2023-09-10T06:18:34.672Z,99.90
2023-09-10T06:21:02.749Z,99.90
2023-09-10T06:23:30.871Z,99.90
2023-09-10T06:25:59.242Z,99.90
2023-09-10T06:28:29.307Z,99.90
2023-09-10T06:30:57.789Z,99.90
2023-09-10T06:33:26.110Z,99.90
2023-09-10T06:35:54.952Z,99.90
2023-09-10T06:38:23.652Z,99.90
2023-09-10T06:40:52.462Z,99.90
2023-09-10T06:43:21.016Z,99.90
2023-09-10T06:46:04.420Z,99.90
2023-09-10T06:48:32.615Z,99.90
2023-09-10T06:51:02.239Z,99.90
2023-09-10T06:53:30.491Z,99.90
2023-09-10T06:55:59.374Z,99.90
2023-09-10T06:58:27.499Z,99.90
2023-09-10T07:00:55.640Z,99.90
2023-09-10T07:03:25.104Z,99.90
2023-09-10T07:05:53.303Z,99.90
2023-09-10T07:08:21.606Z,99.90
2023-09-10T07:10:49.752Z,99.90
2023-09-10T07:13:18.306Z,99.90
2023-09-10T07:15:46.464Z,99.90
2023-09-10T07:18:14.713Z,99.90
2023-09-10T07:20:45.018Z,99.90
2023-09-10T07:23:13.220Z,99.90
2023-09-10T07:25:41.339Z,99.90
2023-09-10T07:28:09.468Z,99.90
2023-09-10T07:30:37.519Z,99.90
2023-09-10T07:33:05.835Z,99.90
2023-09-10T07:35:34.238Z,99.90
2023-09-10T07:38:03.763Z,99.90
2023-09-10T07:40:31.888Z,99.90
2023-09-10T07:43:00.704Z,99.90
2023-09-10T07:45:28.837Z,99.90
2023-09-10T07:48:00.718Z,99.90
2023-09-10T07:50:29.910Z,99.90
2023-09-10T07:52:58.175Z,99.90
2023-09-10T07:55:27.831Z,99.90
2023-09-10T07:57:56.040Z,99.90
2023-09-10T08:00:26.099Z,99.90
2023-09-10T08:02:55.296Z,99.90
2023-09-10T08:05:23.513Z,99.90
2023-09-10T08:07:51.642Z,99.80
2023-09-10T08:10:19.779Z,98.90
2023-09-10T08:12:49.284Z,97.90
2023-09-10T08:15:17.431Z,98.10
2023-09-10T08:17:45.596Z,97.80
2023-09-10T08:20:13.950Z,95.80
2023-09-10T08:22:42.004Z,92.70
2023-09-10T08:25:10.319Z,92.20
2023-09-10T08:27:38.430Z,91.20
2023-09-10T08:30:10.201Z,91.00
2023-09-10T08:32:38.777Z,91.10
2023-09-10T08:35:08.089Z,91.50
2023-09-10T08:37:36.205Z,88.60
2023-09-10T08:40:05.296Z,90.90
2023-09-10T08:42:41.118Z,90.30
2023-09-10T08:45:12.646Z,88.50
2023-09-10T08:47:42.854Z,88.00
2023-09-10T08:50:12.621Z,86.40
2023-09-10T08:52:44.594Z,85.90
2023-09-10T08:55:14.334Z,90.80
2023-09-10T08:57:45.122Z,87.60
2023-09-10T09:00:15.220Z,85.70
2023-09-10T09:02:45.486Z,85.70
2023-09-10T09:05:14.242Z,86.40
2023-09-10T09:07:47.845Z,85.70
2023-09-10T09:10:20.047Z,83.80
2023-09-10T09:12:50.847Z,85.10
2023-09-10T09:15:21.492Z,84.10
2023-09-10T09:17:54.757Z,80.40
2023-09-10T09:20:25.213Z,80.40
2023-09-10T09:23:02.942Z,84.20
2023-09-10T09:25:32.158Z,80.40
2023-09-10T09:28:01.497Z,84.40
2023-09-10T09:30:31.065Z,87.40
2023-09-10T09:32:59.246Z,85.60
2023-09-10T09:35:27.519Z,86.20
2023-09-10T09:37:55.635Z,85.70
2023-09-10T09:40:23.824Z,86.90
2023-09-10T09:42:54.133Z,87.70
2023-09-10T09:45:27.024Z,84.70
2023-09-10T09:47:56.644Z,83.90
2023-09-10T09:50:27.600Z,84.20
2023-09-10T09:52:57.315Z,84.40
2023-09-10T09:55:25.716Z,80.20
2023-09-10T09:57:54.258Z,83.00
2023-09-10T10:00:22.447Z,81.50
2023-09-10T10:02:50.815Z,83.50
2023-09-10T10:05:20.428Z,84.80
2023-09-10T10:07:52.501Z,84.20
2023-09-10T10:10:21.944Z,87.20
2023-09-10T10:12:53.452Z,85.70
2023-09-10T10:15:23.931Z,85.60
2023-09-10T10:17:54.496Z,85.50
2023-09-10T10:20:24.520Z,84.50
2023-09-10T10:22:53.321Z,84.00
2023-09-10T10:25:21.819Z,84.80
2023-09-10T10:27:51.082Z,85.80
2023-09-10T10:30:19.424Z,84.40
2023-09-10T10:32:49.801Z,82.00
2023-09-10T10:35:18.341Z,81.70
2023-09-10T10:37:52.259Z,82.90
2023-09-10T10:40:21.546Z,84.30
2023-09-10T10:42:52.706Z,85.00
2023-09-10T10:45:21.607Z,85.40
2023-09-10T10:47:50.455Z,83.10
2023-09-10T10:50:26.695Z,83.00
2023-09-10T10:53:01.435Z,87.80
2023-09-10T10:55:29.900Z,85.20
2023-09-10T10:57:58.453Z,85.40
2023-09-10T11:00:28.494Z,85.00
2023-09-10T11:03:11.146Z,85.00
2023-09-10T11:06:08.139Z,85.00
2023-09-10T11:08:40.075Z,87.10
2023-09-10T11:11:10.479Z,87.00
2023-09-10T11:14:01.816Z,84.50
2023-09-10T11:16:31.889Z,83.80
2023-09-10T11:19:00.484Z,84.00
2023-09-10T11:22:03.755Z,82.40
2023-09-10T11:24:37.324Z,86.40
2023-09-10T11:27:22.913Z,84.00
2023-09-10T11:30:11.181Z,83.50
2023-09-10T11:32:40.942Z,83.20
2023-09-10T11:35:24.865Z,84.50
2023-09-10T11:37:54.152Z,81.40
2023-09-10T11:40:25.440Z,78.10
2023-09-10T11:42:54.329Z,78.70
2023-09-10T11:45:22.472Z,80.40
2023-09-10T11:47:52.636Z,78.30
2023-09-10T11:50:27.311Z,79.30
2023-09-10T11:52:55.588Z,77.10
2023-09-10T11:55:25.814Z,78.80
2023-09-10T11:57:55.074Z,81.70
2023-09-10T12:00:24.978Z,79.10
2023-09-10T12:02:53.693Z,81.10
2023-09-10T12:05:21.859Z,79.50
2023-09-10T12:07:50.856Z,78.90
2023-09-10T12:10:19.227Z,78.60
2023-09-10T12:12:49.772Z,76.60
2023-09-10T12:15:18.081Z,76.60
2023-09-10T12:17:47.391Z,79.30
2023-09-10T12:20:15.960Z,78.00
2023-09-10T12:23:09.236Z,79.90
2023-09-10T12:25:37.445Z,78.00
2023-09-10T12:28:09.045Z,80.60
2023-09-10T12:30:38.413Z,77.90
2023-09-10T12:33:07.444Z,77.40
2023-09-10T12:35:36.490Z,79.20
2023-09-10T12:38:04.866Z,78.40
2023-09-10T12:40:33.296Z,76.90
2023-09-10T12:43:01.576Z,77.00
2023-09-10T12:45:31.257Z,74.30
2023-09-10T12:47:59.519Z,73.70
2023-09-10T12:50:28.084Z,73.20
2023-09-10T12:52:57.067Z,76.00
2023-09-10T12:55:25.278Z,72.10
2023-09-10T12:57:54.511Z,73.90
2023-09-10T13:00:24.802Z,73.30
2023-09-10T13:02:55.889Z,74.10
2023-09-10T13:05:24.152Z,74.20
2023-09-10T13:07:52.429Z,74.20
2023-09-10T13:10:21.386Z,73.00
2023-09-10T13:12:49.426Z,75.20
2023-09-10T13:15:17.797Z,76.20
2023-09-10T13:17:46.252Z,75.20
2023-09-10T13:20:16.292Z,76.80
2023-09-10T13:22:45.333Z,74.80
2023-09-10T13:25:13.874Z,75.90
2023-09-10T13:27:41.932Z,74.70
2023-09-10T13:30:12.364Z,76.90
2023-09-10T13:32:40.906Z,74.50
2023-09-10T13:35:10.290Z,76.20
2023-09-10T13:37:40.072Z,75.80
2023-09-10T13:40:09.900Z,75.20
2023-09-10T13:42:39.097Z,74.70
2023-09-10T13:45:09.707Z,74.50
2023-09-10T13:47:37.969Z,73.50
2023-09-10T13:50:07.470Z,73.30
2023-09-10T13:52:35.577Z,74.20
2023-09-10T13:55:05.381Z,71.00
2023-09-10T13:57:33.427Z,73.40
2023-09-10T14:00:01.546Z,71.10
2023-09-10T14:02:29.713Z,71.30
2023-09-10T14:05:00.330Z,72.90
2023-09-10T14:07:28.523Z,71.90
2023-09-10T14:09:56.588Z,72.50
2023-09-10T14:12:26.079Z,73.70
2023-09-10T14:14:54.297Z,74.80
2023-09-10T14:17:22.422Z,74.00
2023-09-10T14:19:51.543Z,71.50
2023-09-10T14:22:19.665Z,74.50
2023-09-10T14:24:47.865Z,72.30
2023-09-10T14:27:16.624Z,74.40
2023-09-10T14:29:46.068Z,75.00
2023-09-10T14:32:14.224Z,74.00
2023-09-10T14:34:43.645Z,75.70
2023-09-10T14:37:11.828Z,75.50
2023-09-10T14:39:39.914Z,72.50
2023-09-10T14:42:08.119Z,73.80
2023-09-10T14:44:36.244Z,74.00
2023-09-10T14:47:06.316Z,75.20
2023-09-10T14:49:34.427Z,71.40
2023-09-10T14:52:02.498Z,75.00
2023-09-10T14:54:31.469Z,75.80
2023-09-10T14:56:59.623Z,75.80
2023-09-10T14:59:27.834Z,73.40
2023-09-10T15:01:55.883Z,74.60
2023-09-10T15:04:25.622Z,76.40
2023-09-10T15:06:55.115Z,77.50
2023-09-10T15:09:23.638Z,79.60
2023-09-10T15:11:51.861Z,81.00
2023-09-10T15:14:20.317Z,78.30
2023-09-10T15:16:48.419Z,78.60
2023-09-10T15:19:16.561Z,80.60
2023-09-10T15:21:45.941Z,79.20
2023-09-10T15:24:13.989Z,81.70
2023-09-10T15:26:44.164Z,81.20
2023-09-10T15:29:12.491Z,82.20
2023-09-10T15:31:40.902Z,82.80
2023-09-10T15:34:09.123Z,81.70
2023-09-10T15:36:38.536Z,83.10
2023-09-10T15:39:07.988Z,83.20
2023-09-10T15:41:43.690Z,85.40
2023-09-10T15:44:12.280Z,87.10
2023-09-10T15:46:40.551Z,90.10
2023-09-10T15:49:08.696Z,90.70
2023-09-10T15:51:36.792Z,91.00
2023-09-10T15:54:05.174Z,91.00
2023-09-10T15:56:34.710Z,91.00
2023-09-10T15:59:02.865Z,91.10
2023-09-10T16:01:31.331Z,91.60
2023-09-10T16:03:59.755Z,91.90
2023-09-10T16:06:27.943Z,91.40
2023-09-10T16:08:56.051Z,91.10
2023-09-10T16:11:24.227Z,91.00
2023-09-10T16:13:53.764Z,91.40
2023-09-10T16:16:21.886Z,91.60
2023-09-10T16:18:49.936Z,91.70
2023-09-10T16:21:18.303Z,92.10
2023-09-10T16:23:46.389Z,92.30
2023-09-10T16:26:14.546Z,92.90
2023-09-10T16:28:42.948Z,93.40
2023-09-10T16:31:12.497Z,93.70
2023-09-10T16:33:40.825Z,93.90
2023-09-10T16:36:09.473Z,94.70
2023-09-10T16:38:37.561Z,95.20
2023-09-10T16:41:05.694Z,95.30
2023-09-10T16:43:33.787Z,95.60
2023-09-10T16:46:02.026Z,96.00
2023-09-10T16:48:31.600Z,96.30
2023-09-10T16:50:59.732Z,96.90
2023-09-10T16:53:27.771Z,97.70
2023-09-10T16:55:56.871Z,98.30
2023-09-10T16:58:25.482Z,99.30
2023-09-10T17:00:53.872Z,99.70
2023-09-10T17:03:22.270Z,99.90
2023-09-10T17:05:52.533Z,99.90
2023-09-10T17:08:20.655Z,99.90
2023-09-10T17:10:51.094Z,99.90
2023-09-10T17:13:19.821Z,99.90
2023-09-10T17:15:47.890Z,99.90
2023-09-10T17:18:16.072Z,99.90
2023-09-10T17:20:44.631Z,99.90
2023-09-10T17:23:14.112Z,99.90
2023-09-10T17:25:42.159Z,99.90
2023-09-10T17:28:10.677Z,99.90
2023-09-10T17:30:38.896Z,99.90
2023-09-10T17:33:07.235Z,99.90
2023-09-10T17:35:35.492Z,99.90
2023-09-10T17:38:04.164Z,99.90
2023-09-10T17:40:34.061Z,99.90
2023-09-10T17:43:02.246Z,99.90
2023-09-10T17:45:32.439Z,99.90
2023-09-10T17:48:01.019Z,99.90
2023-09-10T17:50:29.649Z,99.90
2023-09-10T17:52:57.720Z,99.90
2023-09-10T17:55:26.965Z,99.90
2023-09-10T17:57:56.647Z,99.90
2023-09-10T18:00:25.019Z,99.90
2023-09-10T18:02:53.297Z,99.90
2023-09-10T18:05:21.607Z,99.90
2023-09-10T18:07:49.829Z,99.90
2023-09-10T18:10:17.990Z,99.90
2023-09-10T18:12:46.557Z,99.90
2023-09-10T18:15:16.234Z,99.90
2023-09-10T18:17:46.077Z,99.90
2023-09-10T18:20:14.663Z,99.90
2023-09-10T18:22:42.738Z,99.90
2023-09-10T18:25:10.927Z,99.90
2023-09-10T18:27:40.911Z,99.90
2023-09-10T18:30:10.023Z,99.90
2023-09-10T18:32:40.207Z,99.90
2023-09-10T18:35:08.970Z,99.90
2023-09-10T18:37:37.125Z,99.90
2023-09-10T18:40:06.360Z,99.90
2023-09-10T18:42:34.406Z,99.90
2023-09-10T18:45:02.445Z,99.90
2023-09-10T18:47:30.692Z,99.90
2023-09-10T18:50:00.212Z,99.90
2023-09-10T18:52:28.324Z,99.90
2023-09-10T18:54:57.317Z,99.90
2023-09-10T18:57:25.461Z,99.90
2023-09-10T18:59:53.529Z,99.90
2023-09-10T19:02:21.583Z,99.90
2023-09-10T19:04:49.756Z,99.90
2023-09-10T19:07:19.146Z,99.90
2023-09-10T19:09:48.779Z,99.90
2023-09-10T19:12:16.811Z,99.90
2023-09-10T19:14:44.916Z,99.90
2023-09-10T19:17:13.194Z,99.90
2023-09-10T19:19:41.389Z,99.90
2023-09-10T19:22:09.473Z,99.90
2023-09-10T19:24:38.855Z,99.90
2023-09-10T19:27:07.094Z,99.90
2023-09-10T19:29:35.289Z,99.90
2023-09-10T19:32:03.673Z,99.90
2023-09-10T19:34:31.718Z,99.90
2023-09-10T19:37:05.294Z,99.90
2023-09-10T19:39:33.782Z,99.90
2023-09-10T19:42:03.743Z,99.90
2023-09-10T19:44:32.113Z,99.90
2023-09-10T19:47:00.319Z,99.90
2023-09-10T19:49:28.597Z,99.90
2023-09-10T19:51:57.108Z,99.90
2023-09-10T19:54:25.250Z,99.90
2023-09-10T19:56:53.315Z,99.90
2023-09-10T19:59:23.023Z,99.90
2023-09-10T20:01:53.811Z,99.90
2023-09-10T20:04:21.887Z,99.90
2023-09-10T20:06:51.906Z,99.90
2023-09-10T20:09:19.972Z,99.90
2023-09-10T20:11:48.035Z,99.90
2023-09-10T20:14:16.100Z,99.90
2023-09-10T20:16:45.488Z,99.90
2023-09-10T20:19:13.578Z,99.90
2023-09-10T20:21:41.602Z,99.90
2023-09-10T20:24:09.975Z,99.90
2023-09-10T20:26:38.036Z,99.90
2023-09-10T20:29:06.233Z,99.90
2023-09-10T20:31:34.355Z,99.90
2023-09-10T20:34:04.139Z,99.90
2023-09-10T20:36:32.559Z,99.90
2023-09-10T20:39:00.695Z,99.90
2023-09-10T20:41:28.855Z,99.90
2023-09-10T20:43:56.988Z,99.90
2023-09-10T20:46:25.155Z,99.90
2023-09-10T20:48:53.233Z,99.90
2023-09-10T20:51:30.413Z,99.90
2023-09-10T20:53:58.527Z,99.90
2023-09-10T20:56:26.633Z,99.90
2023-09-10T20:58:54.943Z,99.90
2023-09-10T21:01:23.230Z,99.90
2023-09-10T21:03:51.698Z,99.90
2023-09-10T21:06:20.370Z,99.90
2023-09-10T21:08:52.365Z,99.90
2023-09-10T21:11:20.735Z,99.90
2023-09-10T21:13:49.209Z,99.90
2023-09-10T21:16:18.068Z,99.90
2023-09-10T21:18:46.827Z,99.90
2023-09-10T21:21:17.185Z,99.90
2023-09-10T21:23:45.333Z,99.90
2023-09-10T21:26:14.837Z,99.90
2023-09-10T21:28:43.072Z,99.90
2023-09-10T21:31:12.048Z,99.90
2023-09-10T21:33:42.313Z,99.90
2023-09-10T21:36:11.330Z,99.90
2023-09-10T21:38:40.106Z,99.90
2023-09-10T21:41:08.680Z,99.90
2023-09-10T21:43:38.095Z,99.90
2023-09-10T21:46:10.395Z,99.90
2023-09-10T21:48:38.740Z,99.90
2023-09-10T21:51:07.093Z,99.90
2023-09-10T21:53:35.219Z,99.90
2023-09-10T21:56:03.306Z,99.90
2023-09-10T21:58:31.577Z,99.90
2023-09-10T22:01:00.912Z,99.90
2023-09-10T22:03:29.118Z,99.90
2023-09-10T22:05:58.938Z,99.90
2023-09-10T22:08:27.155Z,99.90
2023-09-10T22:10:59.683Z,99.90
2023-09-10T22:13:28.449Z,99.90
2023-09-10T22:15:57.015Z,99.90
2023-09-10T22:18:27.472Z,99.90
2023-09-10T22:20:56.228Z,99.90
2023-09-10T22:23:24.374Z,99.90
2023-09-10T22:25:52.632Z,99.90
2023-09-10T22:28:22.666Z,99.90
2023-09-10T22:30:51.151Z,99.90
2023-09-10T22:33:19.294Z,99.90
2023-09-10T22:35:48.879Z,99.90
2023-09-10T22:38:20.928Z,99.90
2023-09-10T22:40:49.056Z,99.90
2023-09-10T22:43:17.151Z,99.90
2023-09-10T22:45:45.196Z,99.90
2023-09-10T22:48:13.373Z,99.90
2023-09-10T22:50:41.518Z,99.90
2023-09-10T22:53:10.998Z,99.90
2023-09-10T22:55:39.181Z,99.90
2023-09-10T22:58:07.340Z,99.90
2023-09-10T23:00:36.765Z,99.90
2023-09-10T23:03:05.328Z,99.90
2023-09-10T23:05:33.524Z,99.90
2023-09-10T23:08:01.668Z,99.90
2023-09-10T23:10:31.197Z,99.90
2023-09-10T23:12:59.293Z,99.90
2023-09-10T23:15:27.694Z,99.90
2023-09-10T23:17:55.988Z,99.90
2023-09-10T23:20:24.156Z,99.90
2023-09-10T23:23:00.567Z,99.90
2023-09-10T23:25:30.198Z,99.90
2023-09-10T23:27:58.248Z,99.90
2023-09-10T23:30:26.284Z,99.90
2023-09-10T23:32:54.417Z,99.90
2023-09-10T23:35:22.538Z,99.90
2023-09-10T23:37:50.696Z,99.90
2023-09-10T23:40:18.713Z,99.90
2023-09-10T23:42:48.262Z,99.90
2023-09-10T23:45:16.382Z,99.90
2023-09-10T23:47:44.717Z,99.90
2023-09-10T23:50:12.950Z,99.90
2023-09-10T23:52:41.128Z,99.90
2023-09-10T23:55:10.304Z,99.90
2023-09-10T23:57:38.502Z,99.90
